Strona główna
METAR-TAF:

METAR-TAF

Lotnisko :

Port lotniczy Pardubice

Pardubice, Czechy

Szerokość geograficzna: 50-00-48N, Długość geograficzna: 15-44-19E, wysokość: 226 m

Aktualna obserwacja pogody

Raport powstał 50 minut temu, godzina 13:00 UTC
Wiatr 5 kt od zachodnio-południowy zachód, zmienny między południe i północny zachód
Temperatura 13°C
Wilgotność 44%
Ciśnienie 1034 hPa
Widzialność 10 km lub więcej
Brak chmur poniżej 1500 m i brak chmur cumulonimbus

METAR: LKPD 211300Z 25005KT 180V320 CAVOK 13/01 Q1034 NOSIG RMK BLU BLU

czas: 14:50 (13:50 UTC)

Prognoza

Raport powstał 2 godziny i 50 minut temu, godzina 11:00 UTC
Prognoza ważna od 21 godzina 12 UTC do 22 godzina 12 UTC
Wiatr 2 kt z kierunków zmiennych
Widzialność 10 km lub więcej
Brak chmur poniżej 1500 m i brak chmur cumulonimbus
Przejściowo
od 21 godzina 12 UTC do 21 godzina 16 UTC
Wiatr 6 kt od północny zachód

TAF: LKPD 211100Z 2112/2212 VRB02KT CAVOK TEMPO 2112/2116 31006KT

Obserwacja i prognoza pogody dla ponad 4000 lotnisk (raport METAR i TAF).

Dostępne stacje oznaczono żółtymi i czerwonymi punktami na mapie.

Najedź kursorem aby zobaczyć nazwę stacji.

Kliknij aby zobaczyć obserwacje i prognozy pogody.

Aby zmienić mapę: kliknij na zielony przycisk z czarnym krzyżykiem, aby powiększyć; na zielony przycisk z myślnikiem, aby pomniejszyć; na zielone strzałki, aby przejść do map sąsiednich.


METAR-TAF: